СКИДКИ НА СМАРТФОНЫ!

О сайте АЭРОКЛУБЫ И АЭРОДРОМЫ:

Добрый день Уважаемые посетители сайта!
Этот ресурс создан с целью предоставить любителям малой авиации максимум полезной информации и возможностей по обмену различными сведениями об аэродромах и интересных маршрутах. Для этого на сайте есть странички Аэродромы - информация из баз АОПА (в том виде как она предоставляется к свободному использованию) и Каталог аэродромов и аэроклубов , с различными вариантами поиска и сортировки, возможностью найти трансфер, арендовать авто или забронировать номер в гостинице on-line, а так же возможностями :
- для аэроклубов - добавить какую либо дополнительную информацию в страничку , посвященную аэроклубу
(чтобы добавить информацию необходимо зарегистрироваться, и подтвердить свою принадлежность к какому либо аэроклубу)
- для посетителей - поделиться каким либо интересным маршрутом, нарисовать его на карте, описать достопримечательности, загрузить фотографии и поставить в соответствие с каким либо клубом или аэродромом.
(чтобы добавить информацию необходимо зарегистрироваться)

Аэроклубы / Аэродромы в Москве

Карта аэродромов в Москве по коду ИКАО

Список аэродромов Москвы

Авиационная погода в Москва - Домодедово

Погода METAR: 
UUDD 081500Z 17006MPS 9999 BKN013 M07/M10 Q1020 R14R/450237 NOSIG
Время наблюдения
2022-12-08T15:00:00Z
Температура C
-7.0
Точка росы
-10.0
Направление ветра
170
Скорость ветра (узлы)
12
Метео видимость
6.21
Облачность
BKN
Нижняя граница облачности (футы)
1300
Явления погоды
Условия полета
MVFR
Аэропорт подробнее: 
BKN – значительная (рассеянная, разорванная) облачность;

Авиационная погода в Москва - Шереметьево

Погода METAR: 
UUEE 081500Z 17007G15MPS 150V250 9999 OVC012 M06/M09 Q1018 R06R/490330 R06C/490326 NOSIG
Время наблюдения
2022-12-08T15:00:00Z
Температура C
-6.0
Точка росы
-9.0
Направление ветра
170
Скорость ветра (узлы)
14
Метео видимость
6.21
Облачность
OVC
Нижняя граница облачности (футы)
1200
Явления погоды
Условия полета
MVFR
Аэропорт подробнее: 
OVC – сплошная облачность;

Авиационная погода в Москва - Внуково

Погода METAR: 
UUWW 081500Z 17005MPS 9999 BKN011 M06/M09 Q1019 R19/490537 NOSIG
Время наблюдения
2022-12-08T15:00:00Z
Температура C
-6.0
Точка росы
-9.0
Направление ветра
170
Скорость ветра (узлы)
10
Метео видимость
6.21
Облачность
BKN
Нижняя граница облачности (футы)
1100
Явления погоды
Условия полета
MVFR
Аэропорт подробнее: 
BKN – значительная (рассеянная, разорванная) облачность;

Скидки на навигаторы!

Аэроклубы и аэродромы по регионам Юга России